Delta Virtual Airport Information Service

Buffalo Niagara International Airport

ICAO: KBUF Country: United States
Latitude: 42.9405 Longitude: -78.7321
Latest Arrival : AAL1923 (1A) (KCLT-KBUF) Latest Departure : AAL1923 (1B) (KBUF-KCLT)


WX CaptureLIVE
Data provided by noaa.gov | Fetched at 17:53:47

METAR : KBUF 172054Z 19003KT 10SM FEW045 FEW080 SCT110 BKN230 22/17 A3003 RMK AO2 LTG DSNT E AND S RAE03 SLP167 CB DSNT E-S MOV SW P0000 60000 T02170172 58003 $

TAF : KBUF 172054Z 19003KT 10SM FEW045 FEW080 SCT110 BKN230 22/17 A3003 RMK AO2 LTG DSNT E AND S RAE03 SLP167 CB DSNT E-S MOV SW P0000 60000 T02170172 58003 $


Runway Data for KBUF
Data provided by openaviationdata.com

Runway ID Mag Var Hdg Length Elevation Surface ILS Freq ILS Id ILS Slope
5 -9 52° 8097 ft 691 ft Asphalt 108.5 IGBI 3
14 -9 135° 7156 ft 691 ft Asphalt -- -- --
23 -9 232° 8097 ft 691 ft Asphalt 111.3 IBUF 3
32 -9 315° 7156 ft 691 ft Asphalt 109.95 IBNQ 3

Buffalo Niagara International Airport, United States
Use only for reference purposes



Not for navigational purposes.